Flight Track Log - Related Links

Times and Time Zones

All times are in EDT time to prevent confusion due to time zone crossing. See the N175HQ flight status page for this flight to view local times or setup timezone preferences in your user account.

Time Position Orientation Groundspeed Altitude Reporting Facility
EDT Latitude Longitude Course Direction KTS MPH feet Rate Location/Type
Mon 05:21:23 PM 39.8500 -104.8167 218° Southwest 270 311 9,100  Level Denver TRACON
Mon 05:22:09 PM 39.8078 -104.8722 225° Southwest 283 326 10,000 2,187 Climbing Denver Center
Mon 05:23:10 PM 39.7369 -104.9250 210° Southwest 303 349 13,000 2,683 Climbing Denver Center
Mon 05:24:12 PM 39.6431 -104.9106 173° South 324 373 15,500 2,341 Climbing Denver Center
Mon 05:25:13 PM 39.5581 -104.9192 184° South 305 351 17,800 1,869 Climbing Denver Center
Mon 05:26:00 PM 39.4211 -104.5622 218° Southwest  Level FlightAware Approximate
Mon 05:26:14 PM 39.4869 -104.9444 195° South 313 360 19,300  Level Denver Center
Mon 05:27:16 PM 39.3772 -104.9817 195° South 333 383 21,500 1,790 Climbing Denver Center
Mon 05:28:18 PM 39.2856 -105.0136 195° South 344 396 23,000 1,210 Climbing Denver Center
Mon 05:29:20 PM 39.1903 -105.0458 195° South 354 407 24,000 1,512 Climbing Denver Center
Mon 05:30:21 PM 39.1078 -105.0828 199° South 328 377 26,100 1,951 Climbing Denver Center
Mon 05:31:23 PM 39.0097 -105.1467 207° Southwest 333 383 28,000 1,459 Climbing Denver Center
Mon 05:33:26 PM 38.8319 -105.2603 206° Southwest 356 410 30,600 1,362 Climbing Denver Center
Mon 05:34:28 PM 38.7419 -105.3172 206° Southwest 357 411 32,200 1,317 Climbing Denver Center
Mon 05:35:29 PM 38.6522 -105.3742 206° Southwest 356 410 33,300 878 Climbing Denver Center
Mon 05:36:31 PM 38.5608 -105.4331 207° Southwest 362 417 34,000 339 Climbing Denver Center
Mon 05:37:33 PM 38.4747 -105.4875 206° Southwest 346 398 34,000  Level Denver Center
Mon 05:38:34 PM 38.3883 -105.5406 206° Southwest 342 394 34,000  Level Denver Center
Mon 05:39:36 PM 38.2936 -105.6014 207° Southwest 341 392 34,000  Level Denver Center
Mon 05:40:38 PM 38.2119 -105.6528 206° Southwest 342 394 34,000  Level Denver Center
Mon 05:41:39 PM 38.1142 -105.7147 206° Southwest 349 402 34,000  Level Denver Center
Mon 05:42:41 PM 38.0339 -105.7642 206° Southwest 340 391 34,000  Level Denver Center
Mon 05:43:43 PM 37.9656 -105.8358 220° Southwest 335 386 34,000  Level Denver Center
Mon 05:44:44 PM 37.8944 -105.9275 226° Southwest 327 376 34,000  Level Denver Center
Mon 05:45:46 PM 37.8358 -106.0028 225° Southwest 319 367 34,000  Level Denver Center
Mon 05:46:48 PM 37.7658 -106.0906 225° Southwest 317 365 34,000  Level Denver Center
Mon 05:47:49 PM 37.7064 -106.1656 225° Southwest 316 364 34,000  Level Denver Center
Mon 05:48:51 PM 37.6419 -106.2469 225° Southwest 318 366 34,000  Level Denver Center
Mon 05:49:53 PM 37.5686 -106.3383 225° Southwest 328 377 34,000  Level Denver Center
Mon 05:50:54 PM 37.5075 -106.4158 225° Southwest 327 376 34,000  Level Denver Center
Mon 05:51:56 PM 37.4467 -106.4933 225° Southwest 326 375 34,000  Level Denver Center
Mon 05:52:58 PM 37.3753 -106.5825 225° Southwest 324 373 34,000  Level Denver Center
Mon 05:54:00 PM 37.3150 -106.6586 225° Southwest 321 369 34,000  Level Denver Center
Mon 05:55:01 PM 37.2433 -106.7453 224° Southwest 320 368 34,000  Level Denver Center
Mon 05:56:03 PM 37.1828 -106.8203 225° Southwest 319 367 34,000  Level Denver Center
Mon 05:57:05 PM 37.1139 -106.9081 225° Southwest 318 366 34,000  Level Denver Center
Mon 05:58:07 PM 37.0517 -106.9847 225° Southwest 324 373 34,000  Level Denver Center
Mon 05:59:08 PM 36.9800 -107.0733 225° Southwest 324 373 34,000  Level Denver Center
Mon 06:00:10 PM 36.9175 -107.1506 225° Southwest 330 380 34,000  Level Denver Center
Mon 06:01:12 PM 36.8544 -107.2267 224° Southwest 331 381 34,000  Level Denver Center
Mon 06:02:13 PM 36.7814 -107.3167 225° Southwest 329 379 34,000  Level Denver Center
Mon 06:03:15 PM 36.7186 -107.3925 224° Southwest 329 379 34,000  Level Denver Center
Mon 06:04:17 PM 36.6450 -107.4817 224° Southwest 329 379 34,000  Level Denver Center
Mon 06:05:19 PM 36.5814 -107.5586 224° Southwest 332 382 34,000  Level Denver Center
Mon 06:06:20 PM 36.5086 -107.6467 224° Southwest 329 379 34,000  Level Denver Center
Mon 06:07:22 PM 36.4453 -107.7253 225° Southwest 333 383 34,000  Level Denver Center
Mon 06:08:36 PM 36.3806 -107.8014 223° Southwest 335 386 34,000  Level Denver Center
Mon 06:09:38 PM 36.2969 -107.9036 225° Southwest 331 381 34,000  Level Denver Center
Mon 06:10:39 PM 36.2331 -107.9794 224° Southwest 331 381 34,000  Level Denver Center
Mon 06:11:41 PM 36.1578 -108.0692 224° Southwest 334 384 34,000  Level Denver Center
Mon 06:12:43 PM 36.0925 -108.1458 224° Southwest 336 387 34,000  Level Denver Center
Mon 06:13:44 PM 36.0192 -108.2333 224° Southwest 330 380 34,000  Level Denver Center
Mon 06:14:46 PM 35.9556 -108.3081 224° Southwest 329 379 34,000  Level Denver Center
Mon 06:15:48 PM 35.8811 -108.3978 224° Southwest 331 381 34,000  Level Denver Center
Mon 06:16:58 PM 35.8042 -108.4881 224° Southwest 337 388 34,000  Level Albuquerque Center
Mon 06:17:59 PM 35.7397 -108.5644 224° Southwest 336 387 34,000  Level Albuquerque Center
Mon 06:19:01 PM 35.6636 -108.6547 224° Southwest 337 388 34,000 -242 Level Albuquerque Center
Mon 06:20:03 PM 35.5956 -108.7333 223° Southwest 344 396 33,500 -634 Descending Albuquerque Center
Mon 06:21:04 PM 35.5239 -108.8181 224° Southwest 363 418 32,700 -732 Descending Albuquerque Center
Mon 06:22:06 PM 35.4406 -108.9178 224° Southwest 371 427 32,000 -339 Descending Albuquerque Center
Mon 06:23:08 PM 35.3731 -109.0081 227° Southwest 373 429 32,000  Level Albuquerque Center
Mon 06:24:09 PM 35.2933 -109.1108 226° Southwest 372 428 32,000  Level Albuquerque Center
Mon 06:25:11 PM 35.2253 -109.1978 226° Southwest 369 425 32,000  Level Albuquerque Center
Mon 06:26:13 PM 35.1572 -109.2858 227° Southwest 371 427 32,000  Level Albuquerque Center
Mon 06:27:14 PM 35.0781 -109.3886 227° Southwest 371 427 32,000  Level Albuquerque Center
Mon 06:28:16 PM 35.0094 -109.4744 226° Southwest 368 423 32,000  Level Albuquerque Center
Mon 06:29:18 PM 34.9278 -109.5764 226° Southwest 374 430 32,000  Level Albuquerque Center
Mon 06:30:19 PM 34.8558 -109.6667 226° Southwest 383 441 32,000  Level Albuquerque Center
Mon 06:31:21 PM 34.7731 -109.7725 226° Southwest 385 443 32,000  Level Albuquerque Center
Mon 06:32:23 PM 34.7031 -109.8653 227° Southwest 388 447 32,000  Level Albuquerque Center
Mon 06:33:24 PM 34.6622 -109.9781 246° West 382 440 32,000  Level Albuquerque Center
Mon 06:34:26 PM 34.6150 -110.1117 247° West 383 441 32,000  Level Albuquerque Center
Mon 06:35:28 PM 34.5769 -110.2286 248° West 387 445 32,000  Level Albuquerque Center
Mon 06:36:29 PM 34.5233 -110.3517 242° Southwest 376 433 32,000 -244 Level Albuquerque Center
Mon 06:37:31 PM 34.4883 -110.4519 247° West 377 434 31,500 -1,452 Descending Albuquerque Center
Mon 06:38:33 PM 34.4353 -110.5961 246° West 391 450 29,000 -2,146 Descending Albuquerque Center
Mon 06:39:34 PM 34.3900 -110.7089 244° Southwest 378 435 27,100 -1,902 Descending Albuquerque Center
Mon 06:40:36 PM 34.3417 -110.8183 242° Southwest 374 430 25,100 -1,887 Descending Albuquerque Center
Mon 06:41:38 PM 34.2697 -110.9039 225° Southwest 361 415 23,200 -1,854 Descending Albuquerque Center
Mon 06:42:39 PM 34.2022 -110.9919 227° Southwest 358 412 21,300 -1,805 Descending Albuquerque Center
Mon 06:43:41 PM 34.1369 -111.0772 227° Southwest 352 405 19,500 -1,790 Descending Albuquerque Center
Mon 06:44:43 PM 34.0733 -111.1581 226° Southwest 339 390 17,600 -1,854 Descending Albuquerque Center
Mon 06:45:44 PM 34.0000 -111.2536 227° Southwest 326 375 15,700 -1,756 Descending Albuquerque Center
Mon 06:46:46 PM 33.9392 -111.3314 227° Southwest 320 368 14,000 -1,645 Descending Albuquerque Center
Mon 06:47:48 PM 33.8806 -111.4061 227° Southwest 305 351 12,300 -1,463 Descending Albuquerque Center
Mon 06:48:49 PM 33.8139 -111.4636 216° Southwest 291 335 11,000 -634 Descending Albuquerque Center
Mon 06:49:51 PM 33.7494 -111.5206 216° Southwest 288 331 11,000 -435 Level Albuquerque Center
Mon 06:50:53 PM 33.6839 -111.5750 215° Southwest 285 328 10,100 -1,122 Descending Albuquerque Center
Mon 06:51:54 PM 33.6256 -111.6247 215° Southwest 259 298 8,700 -1,268 Descending Albuquerque Center
Mon 06:52:56 PM 33.5642 -111.6508 200° South 241 277 7,500 -1,113 Descending Albuquerque Center
Mon 06:53:58 PM 33.5067 -111.6822 204° Southwest 232 267 6,400 -1,220 Descending Albuquerque Center
Mon 06:54:59 PM 33.4689 -111.7419 233° Southwest 225 259 5,000 -1,512 Descending Albuquerque Center
Mon 06:56:01 PM 33.4406 -111.8217 247° West 222 255 3,300 -1,024 Descending Albuquerque Center
Mon 06:57:02 PM 33.4411 -111.8825 271° West 185 213 2,900 -537 Descending Albuquerque Center
Mon 06:58:04 PM 33.4408 -111.9264 270° West 138 159 2,200 -677 Descending Albuquerque Center
Mon 06:59:06 PM 33.4417 -111.9703 271° West 132 152 1,500 -488 Descending Albuquerque Center
Mon 07:00:07 PM 33.4389 -112.0175 266° West 130 150 1,200 -295 Descending Albuquerque Center

Login

Don't have an account? Register now (free) for customized features, flight alerts, and more!